createdAt,value
2022-09-05T00:00:36.846Z,3.10
2022-09-05T00:03:53.461Z,2.87
2022-09-05T00:06:47.683Z,2.80
2022-09-05T00:09:42.648Z,2.70
2022-09-05T00:12:32.501Z,3.10
2022-09-05T00:15:57.310Z,3.37
2022-09-05T00:21:13.520Z,3.93
2022-09-05T00:24:30.373Z,3.83
2022-09-05T00:25:55.151Z,3.53
2022-09-05T00:29:03.600Z,3.20
2022-09-05T00:32:14.430Z,2.60
2022-09-05T00:35:12.582Z,2.40
2022-09-05T00:38:09.580Z,2.90
2022-09-05T00:41:03.057Z,2.60
2022-09-05T00:43:51.245Z,3.10
2022-09-05T00:46:42.513Z,2.70
2022-09-05T00:49:31.391Z,3.00
2022-09-05T00:52:29.484Z,4.57
2022-09-05T00:55:18.955Z,4.60
2022-09-05T00:58:42.225Z,4.63
2022-09-05T01:01:52.922Z,4.00
2022-09-05T01:05:02.776Z,4.47
2022-09-05T01:08:18.760Z,4.43
2022-09-05T01:11:28.400Z,4.67
2022-09-05T01:14:37.383Z,4.87
2022-09-05T01:17:49.560Z,6.83
2022-09-05T01:20:50.646Z,5.77
2022-09-05T01:23:46.126Z,6.73
2022-09-05T01:26:37.623Z,6.03
2022-09-05T01:29:48.246Z,11.77
2022-09-05T01:33:05.867Z,11.63
2022-09-05T01:36:10.028Z,12.10
2022-09-05T01:40:11.434Z,11.57
2022-09-05T01:42:23.392Z,11.00
2022-09-05T01:45:21.045Z,10.17
2022-09-05T01:48:10.877Z,9.40
2022-09-05T01:51:29.001Z,8.77
2022-09-05T01:54:39.193Z,11.17
2022-09-05T01:57:51.066Z,10.90
2022-09-05T02:00:48.955Z,7.83
2022-09-05T02:03:38.402Z,6.10
2022-09-05T02:06:45.865Z,7.27
2022-09-05T02:10:05.066Z,7.37
2022-09-05T02:13:20.988Z,7.13
2022-09-05T02:16:22.314Z,9.00
2022-09-05T02:19:11.116Z,9.40
2022-09-05T02:22:15.361Z,11.20
2022-09-05T02:25:24.813Z,12.63
2022-09-05T02:28:15.851Z,10.37
2022-09-05T02:31:21.343Z,8.13
2022-09-05T02:34:22.248Z,8.13
2022-09-05T02:37:37.145Z,6.93
2022-09-05T02:45:12.353Z,7.13
2022-09-05T02:45:24.514Z,7.07
2022-09-05T02:47:57.756Z,5.23
2022-09-05T02:57:28.063Z,5.10
2022-09-05T02:57:34.200Z,4.37
2022-09-05T02:58:07.675Z,4.43
2022-09-05T03:00:54.313Z,3.83
2022-09-05T03:03:51.718Z,3.70
2022-09-05T03:07:15.355Z,3.53
2022-09-05T03:10:53.883Z,4.60
2022-09-05T03:14:02.140Z,3.93
2022-09-05T03:17:21.522Z,3.60
2022-09-05T03:20:29.453Z,3.13
2022-09-05T03:23:45.800Z,3.30
2022-09-05T03:26:34.592Z,3.43
2022-09-05T03:30:05.069Z,3.23
2022-09-05T03:33:23.066Z,4.77
2022-09-05T03:36:44.458Z,4.40
2022-09-05T03:39:56.614Z,5.40
2022-09-05T03:43:06.904Z,5.67
2022-09-05T03:46:10.918Z,5.37
2022-09-05T03:52:06.518Z,4.50
2022-09-05T03:57:10.811Z,5.00
2022-09-05T03:57:18.322Z,5.27
2022-09-05T04:00:09.586Z,10.03
2022-09-05T04:08:08.831Z,13.43
2022-09-05T04:08:16.626Z,10.47
2022-09-05T04:10:11.611Z,10.37
2022-09-05T04:13:06.163Z,12.40
2022-09-05T04:16:32.468Z,10.57
2022-09-05T04:19:43.116Z,9.00
2022-09-05T04:23:05.272Z,9.33
2022-09-05T04:26:14.437Z,8.03
2022-09-05T04:29:18.621Z,6.10
2022-09-05T04:32:54.903Z,5.93
2022-09-05T04:35:47.709Z,4.47
2022-09-05T04:38:43.688Z,5.40
2022-09-05T04:41:39.332Z,10.87
2022-09-05T04:44:43.841Z,10.80
2022-09-05T04:47:36.120Z,8.83
2022-09-05T04:50:25.707Z,7.63
2022-09-05T04:53:52.417Z,8.37
2022-09-05T04:56:45.479Z,7.60
2022-09-05T05:06:04.495Z,7.97
2022-09-05T05:06:15.944Z,7.93
2022-09-05T05:06:42.310Z,16.23
2022-09-05T05:10:30.330Z,20.60
2022-09-05T05:18:01.253Z,21.00
2022-09-05T05:18:12.505Z,19.33
2022-09-05T05:19:31.062Z,19.50
2022-09-05T05:22:18.697Z,12.60
2022-09-05T05:25:10.980Z,11.57
2022-09-05T05:28:09.850Z,8.33
2022-09-05T05:31:13.906Z,6.93
2022-09-05T05:34:09.692Z,7.67
2022-09-05T05:37:30.463Z,7.40
2022-09-05T05:40:16.528Z,5.43
2022-09-05T05:43:22.304Z,6.10
2022-09-05T05:46:12.182Z,5.63
2022-09-05T05:49:35.568Z,7.53
2022-09-05T05:52:45.112Z,7.00
2022-09-05T05:55:51.982Z,8.03
2022-09-05T05:59:03.566Z,7.63
2022-09-05T06:02:13.781Z,6.77
2022-09-05T06:05:26.613Z,5.67
2022-09-05T06:11:20.426Z,5.70
2022-09-05T06:14:57.995Z,3.60
2022-09-05T06:16:02.823Z,3.63
2022-09-05T06:19:10.835Z,3.17
2022-09-05T06:22:21.419Z,3.67
2022-09-05T06:25:38.121Z,2.70
2022-09-05T06:28:26.793Z,2.35
2022-09-05T06:31:56.493Z,2.58
2022-09-05T06:35:07.260Z,1.88
2022-09-05T06:38:24.558Z,1.88
2022-09-05T06:41:38.620Z,2.20
2022-09-05T06:45:27.661Z,1.95
2022-09-05T06:48:44.307Z,1.80
2022-09-05T06:52:09.759Z,2.17
2022-09-05T06:55:47.984Z,1.70
2022-09-05T06:58:55.651Z,2.15
2022-09-05T07:02:00.513Z,1.40
2022-09-05T07:05:38.316Z,1.75
2022-09-05T07:08:35.136Z,1.33
2022-09-05T07:11:46.425Z,1.48
2022-09-05T07:14:39.494Z,1.60
2022-09-05T07:18:09.527Z,1.70
2022-09-05T07:21:16.764Z,1.23
2022-09-05T07:24:10.546Z,1.23
2022-09-05T07:26:59.784Z,1.55
2022-09-05T07:29:53.288Z,1.73
2022-09-05T07:32:53.367Z,3.00
2022-09-05T07:35:42.001Z,1.40
2022-09-05T07:38:45.549Z,1.50
2022-09-05T07:41:39.719Z,1.25
2022-09-05T07:44:36.153Z,1.30
2022-09-05T07:47:35.704Z,1.30
2022-09-05T07:53:34.713Z,1.10
2022-09-05T07:56:50.997Z,1.45
2022-09-05T07:57:09.515Z,1.17
2022-09-05T07:59:56.423Z,0.98
2022-09-05T08:02:51.481Z,1.30
2022-09-05T08:05:48.344Z,1.05
2022-09-05T08:09:21.484Z,1.13
2022-09-05T08:12:09.995Z,1.20
2022-09-05T08:15:13.958Z,0.80
2022-09-05T08:18:28.169Z,0.80
2022-09-05T08:21:42.120Z,0.80
2022-09-05T08:24:38.074Z,0.90
2022-09-05T08:27:38.041Z,0.85
2022-09-05T08:30:27.673Z,0.80
2022-09-05T08:33:20.382Z,0.55
2022-09-05T08:36:33.022Z,0.80
2022-09-05T08:39:26.723Z,1.00
2022-09-05T08:42:32.137Z,0.90
2022-09-05T08:46:41.199Z,0.70
2022-09-05T08:49:16.300Z,0.88
2022-09-05T08:52:27.881Z,0.60
2022-09-05T08:55:31.530Z,0.73
2022-09-05T08:58:45.822Z,0.70
2022-09-05T09:02:32.873Z,0.75
2022-09-05T09:05:14.568Z,0.57
2022-09-05T09:08:22.757Z,0.85
2022-09-05T09:11:21.132Z,0.50
2022-09-05T09:14:30.518Z,0.30
2022-09-05T09:17:32.214Z,0.60
2022-09-05T09:20:18.057Z,0.60
2022-09-05T09:23:38.846Z,2.38
2022-09-05T09:26:30.602Z,1.38
2022-09-05T09:29:18.106Z,0.68
2022-09-05T09:32:21.736Z,0.60
2022-09-05T09:35:14.843Z,0.45
2022-09-05T09:38:40.851Z,0.60
2022-09-05T09:41:45.439Z,0.60
2022-09-05T09:45:22.872Z,0.43
2022-09-05T09:48:30.526Z,0.70
2022-09-05T09:51:54.173Z,0.68
2022-09-05T09:55:21.613Z,0.50
2022-09-05T09:58:08.219Z,0.30
2022-09-05T10:01:54.820Z,0.85
2022-09-05T10:10:39.121Z,0.47
2022-09-05T10:10:47.495Z,11.07
2022-09-05T10:15:32.573Z,0.80
2022-09-05T10:18:31.557Z,0.32
2022-09-05T10:21:32.814Z,0.38
2022-09-05T10:25:18.854Z,0.20
2022-09-05T10:28:30.359Z,0.20
2022-09-05T10:34:23.413Z,0.30
2022-09-05T10:35:14.791Z,0.68
2022-09-05T10:38:10.594Z,0.52
2022-09-05T10:41:19.964Z,0.43
2022-09-05T10:44:13.763Z,0.30
2022-09-05T10:47:21.116Z,0.40
2022-09-05T10:50:30.216Z,0.35
2022-09-05T10:53:26.278Z,0.52
2022-09-05T10:56:23.446Z,0.80
2022-09-05T11:02:16.164Z,0.30
2022-09-05T11:02:45.750Z,0.30
2022-09-05T11:05:38.148Z,0.32
2022-09-05T11:09:06.953Z,0.38
2022-09-05T11:12:27.492Z,0.40
2022-09-05T11:15:45.809Z,0.38
2022-09-05T11:19:15.696Z,0.70
2022-09-05T11:22:22.993Z,0.20
2022-09-05T11:25:28.227Z,0.40
2022-09-05T11:28:59.962Z,0.50
2022-09-05T11:34:28.430Z,0.40
2022-09-05T11:39:51.544Z,4.88
2022-09-05T11:40:28.520Z,0.40
2022-09-05T11:43:25.776Z,0.60
2022-09-05T11:46:34.059Z,0.40
2022-09-05T11:49:32.694Z,7.43
2022-09-05T11:52:49.316Z,0.38
2022-09-05T11:55:53.874Z,0.52
2022-09-05T11:58:52.190Z,0.80
2022-09-05T12:02:17.048Z,0.57
2022-09-05T12:05:48.752Z,0.50
2022-09-05T12:08:53.001Z,0.65
2022-09-05T12:12:03.318Z,0.20
2022-09-05T12:15:07.316Z,0.40
2022-09-05T12:21:38.153Z,1.02
2022-09-05T12:25:25.023Z,0.30
2022-09-05T12:32:49.518Z,3.95
2022-09-05T12:36:11.387Z,0.32
2022-09-05T12:40:44.655Z,0.80
2022-09-05T12:41:41.716Z,0.60
2022-09-05T12:41:45.235Z,0.32
2022-09-05T12:42:10.704Z,0.80
2022-09-05T12:45:14.064Z,0.28
2022-09-05T12:48:14.216Z,0.40
2022-09-05T12:51:07.726Z,0.43
2022-09-05T12:54:01.497Z,0.60
2022-09-05T13:02:41.906Z,0.90
2022-09-05T13:03:04.250Z,0.50
2022-09-05T13:03:31.872Z,0.60
2022-09-05T13:06:26.127Z,0.50
2022-09-05T13:09:30.840Z,0.47
2022-09-05T13:14:54.649Z,0.45
2022-09-05T13:15:51.282Z,0.35
2022-09-05T13:18:42.795Z,2.17
2022-09-05T13:21:31.301Z,0.50
2022-09-05T13:24:27.855Z,0.47
2022-09-05T13:27:20.185Z,0.40
2022-09-05T13:33:00.392Z,0.82
2022-09-05T13:38:14.910Z,0.80
2022-09-05T13:38:19.618Z,0.32
2022-09-05T13:40:05.041Z,0.70
2022-09-05T13:43:16.228Z,0.40
2022-09-05T13:46:17.299Z,0.40
2022-09-05T13:49:29.258Z,0.50
2022-09-05T13:52:34.769Z,0.28
2022-09-05T13:55:38.320Z,0.82
2022-09-05T13:58:37.051Z,0.30
2022-09-05T14:01:48.402Z,0.50
2022-09-05T14:05:16.165Z,0.45
2022-09-05T14:08:18.155Z,0.52
2022-09-05T14:11:22.349Z,0.65
2022-09-05T14:14:16.772Z,0.38
2022-09-05T14:20:36.696Z,0.68
2022-09-05T14:23:27.910Z,0.55
2022-09-05T14:26:21.980Z,0.45
2022-09-05T14:29:25.423Z,0.38
2022-09-05T14:37:53.983Z,0.60
2022-09-05T14:38:01.084Z,0.63
2022-09-05T14:38:44.708Z,0.40
2022-09-05T14:41:45.769Z,0.50
2022-09-05T14:44:49.133Z,2.45
2022-09-05T14:47:34.676Z,1.00
2022-09-05T14:50:28.242Z,0.50
2022-09-05T14:55:58.778Z,0.82
2022-09-05T15:02:42.070Z,0.70
2022-09-05T15:02:55.257Z,0.60
2022-09-05T15:04:36.238Z,0.70
2022-09-05T15:07:27.096Z,1.45
2022-09-05T15:12:16.499Z,0.50
2022-09-05T15:13:17.991Z,0.80
2022-09-05T15:16:11.644Z,0.88
2022-09-05T15:18:47.130Z,1.15
2022-09-05T15:21:38.336Z,0.30
2022-09-05T15:24:25.159Z,0.75
2022-09-05T15:26:58.543Z,0.60
2022-09-05T15:29:32.105Z,0.70
2022-09-05T15:32:12.104Z,0.70
2022-09-05T15:34:40.052Z,0.50
2022-09-05T15:37:25.897Z,0.60
2022-09-05T15:40:23.251Z,0.82
2022-09-05T15:42:59.236Z,0.98
2022-09-05T15:45:36.517Z,2.13
2022-09-05T15:48:18.338Z,0.60
2022-09-05T15:50:58.274Z,1.15
2022-09-05T15:53:37.189Z,0.40
2022-09-05T15:56:10.506Z,0.80
2022-09-05T15:58:53.048Z,0.80
2022-09-05T16:01:58.604Z,0.55
2022-09-05T16:10:30.390Z,0.60
2022-09-05T16:10:38.972Z,0.98
2022-09-05T16:10:45.655Z,0.70
2022-09-05T16:13:17.770Z,0.73
2022-09-05T16:21:17.698Z,0.77
2022-09-05T16:23:20.279Z,1.92
2022-09-05T16:23:30.262Z,1.33
2022-09-05T16:24:58.064Z,1.17
2022-09-05T16:27:34.239Z,0.90
2022-09-05T16:30:06.081Z,1.17
2022-09-05T16:32:51.315Z,1.23
2022-09-05T16:35:26.459Z,1.10
2022-09-05T16:38:09.153Z,3.72
2022-09-05T16:40:44.201Z,1.50
2022-09-05T16:43:12.352Z,1.08
2022-09-05T16:45:49.234Z,1.17
2022-09-05T16:48:36.539Z,0.98
2022-09-05T16:51:15.946Z,1.67
2022-09-05T16:53:58.926Z,1.75
2022-09-05T16:56:35.873Z,1.20
2022-09-05T16:59:34.061Z,1.13
2022-09-05T17:02:12.233Z,1.17
2022-09-05T17:05:04.501Z,1.27
2022-09-05T17:07:48.547Z,1.00
2022-09-05T17:10:24.218Z,1.40
2022-09-05T17:12:53.193Z,1.10
2022-09-05T17:15:29.354Z,1.83
2022-09-05T17:18:21.352Z,1.33
2022-09-05T17:20:57.097Z,1.45
2022-09-05T17:27:48.473Z,1.40
2022-09-05T17:29:38.349Z,1.45
2022-09-05T17:32:46.498Z,2.85
2022-09-05T17:35:20.560Z,2.47
2022-09-05T17:38:12.749Z,2.35
2022-09-05T17:41:11.081Z,2.10
2022-09-05T17:43:41.042Z,1.50
2022-09-05T17:46:27.598Z,1.63
2022-09-05T17:49:19.130Z,5.88
2022-09-05T17:51:52.032Z,4.45
2022-09-05T17:54:29.005Z,2.63
2022-09-05T17:56:56.738Z,2.40
2022-09-05T17:59:28.835Z,2.80
2022-09-05T18:02:05.735Z,2.35
2022-09-05T18:04:43.553Z,1.60
2022-09-05T18:07:42.783Z,1.70
2022-09-05T18:10:15.681Z,1.58
2022-09-05T18:16:02.371Z,1.70
2022-09-05T18:19:27.882Z,2.03
2022-09-05T18:21:59.892Z,1.70
2022-09-05T18:24:51.900Z,2.10
2022-09-05T18:28:03.217Z,2.38
2022-09-05T18:30:24.060Z,2.72
2022-09-05T18:32:54.239Z,2.38
2022-09-05T18:35:55.806Z,1.87
2022-09-05T18:38:51.674Z,2.60
2022-09-05T18:41:39.207Z,2.05
2022-09-05T18:44:13.948Z,2.10
2022-09-05T18:46:54.915Z,2.15
2022-09-05T18:50:25.518Z,2.70
2022-09-05T18:52:40.807Z,2.00
2022-09-05T18:56:11.092Z,1.87
2022-09-05T18:58:13.529Z,2.30
2022-09-05T19:00:47.199Z,2.30
2022-09-05T19:03:27.958Z,1.67
2022-09-05T19:06:36.467Z,1.50
2022-09-05T19:09:21.264Z,1.63
2022-09-05T19:12:16.261Z,1.80
2022-09-05T19:15:01.604Z,1.93
2022-09-05T19:17:45.353Z,1.80
2022-09-05T19:20:32.440Z,2.20
2022-09-05T19:23:13.114Z,1.95
2022-09-05T19:25:46.450Z,2.00
2022-09-05T19:34:50.473Z,2.22
2022-09-05T19:36:55.591Z,1.90
2022-09-05T19:37:24.033Z,2.10
2022-09-05T19:37:35.874Z,1.80
2022-09-05T19:47:28.639Z,1.70
2022-09-05T19:47:46.588Z,1.87
2022-09-05T19:47:50.281Z,1.60
2022-09-05T19:48:35.815Z,1.70
2022-09-05T19:51:19.263Z,2.13
2022-09-05T19:53:56.570Z,1.80
2022-09-05T19:56:49.187Z,2.03
2022-09-05T19:59:22.769Z,2.00
2022-09-05T20:01:53.404Z,1.77
2022-09-05T20:04:23.246Z,1.77
2022-09-05T20:06:51.560Z,1.97
2022-09-05T20:09:23.189Z,2.00
2022-09-05T20:11:58.407Z,2.60
2022-09-05T20:14:31.760Z,2.47
2022-09-05T20:17:21.431Z,1.83
2022-09-05T20:19:51.341Z,1.50
2022-09-05T20:22:48.999Z,1.67
2022-09-05T20:25:44.719Z,1.20
2022-09-05T20:28:26.941Z,1.50
2022-09-05T20:31:00.133Z,1.60
2022-09-05T20:33:51.886Z,1.47
2022-09-05T20:43:08.363Z,1.43
2022-09-05T20:43:15.897Z,1.60
2022-09-05T20:43:29.712Z,1.67
2022-09-05T20:45:42.446Z,1.80
2022-09-05T20:52:57.194Z,1.80
2022-09-05T20:54:14.081Z,1.60
2022-09-05T20:54:22.171Z,1.50
2022-09-05T20:56:56.315Z,1.57
2022-09-05T20:59:33.802Z,1.37
2022-09-05T21:02:07.011Z,1.30
2022-09-05T21:04:39.522Z,0.80
2022-09-05T21:07:20.059Z,1.23
2022-09-05T21:10:01.693Z,1.20
2022-09-05T21:12:45.854Z,1.37
2022-09-05T21:15:53.298Z,1.20
2022-09-05T21:18:33.759Z,1.40
2022-09-05T21:21:27.806Z,1.40
2022-09-05T21:24:11.995Z,1.40
2022-09-05T21:26:47.640Z,1.10
2022-09-05T21:29:23.389Z,1.43
2022-09-05T21:31:57.475Z,1.77
2022-09-05T21:34:33.302Z,2.13
2022-09-05T21:37:07.150Z,1.63
2022-09-05T21:39:46.777Z,1.40
2022-09-05T21:47:35.191Z,1.20
2022-09-05T21:47:37.716Z,1.73
2022-09-05T21:48:15.548Z,1.80
2022-09-05T21:50:47.307Z,1.53
2022-09-05T21:58:27.822Z,1.60
2022-09-05T21:59:25.437Z,1.53
2022-09-05T22:02:08.590Z,2.03
2022-09-05T22:04:41.624Z,1.47
2022-09-05T22:07:24.287Z,1.50
2022-09-05T22:10:04.901Z,1.60
2022-09-05T22:12:39.266Z,1.53
2022-09-05T22:15:27.695Z,1.70
2022-09-05T22:18:17.593Z,2.10
2022-09-05T22:21:32.197Z,1.80
2022-09-05T22:23:44.909Z,2.00
2022-09-05T22:26:18.925Z,1.60
2022-09-05T22:28:49.695Z,2.00
2022-09-05T22:31:21.678Z,1.60
2022-09-05T22:33:51.129Z,1.90
2022-09-05T22:36:19.641Z,1.80
2022-09-05T22:38:48.981Z,1.73
2022-09-05T22:41:19.220Z,1.40
2022-09-05T22:43:59.028Z,2.17
2022-09-05T22:46:29.992Z,1.27
2022-09-05T22:48:57.776Z,1.63
2022-09-05T22:51:27.298Z,1.73
2022-09-05T22:53:55.546Z,1.83
2022-09-05T22:56:37.269Z,1.67
2022-09-05T22:59:06.763Z,1.70
2022-09-05T23:01:35.442Z,1.80
2022-09-05T23:04:04.040Z,1.50
2022-09-05T23:06:32.880Z,1.73
2022-09-05T23:09:02.027Z,1.97
2022-09-05T23:11:29.988Z,1.50
2022-09-05T23:14:00.329Z,1.70
2022-09-05T23:16:28.453Z,1.80
2022-09-05T23:18:56.449Z,1.97
2022-09-05T23:21:24.644Z,2.17
2022-09-05T23:23:54.012Z,1.53
2022-09-05T23:26:22.631Z,1.80
2022-09-05T23:28:51.551Z,2.10
2022-09-05T23:31:19.641Z,2.10
2022-09-05T23:33:49.787Z,2.43
2022-09-05T23:36:18.492Z,1.97
2022-09-05T23:38:46.244Z,2.00
2022-09-05T23:41:17.759Z,2.03
2022-09-05T23:43:45.967Z,1.47
2022-09-05T23:46:14.543Z,1.77
2022-09-05T23:48:42.902Z,1.63
2022-09-05T23:51:12.798Z,1.77
2022-09-05T23:53:43.055Z,1.80
2022-09-05T23:56:13.210Z,1.90
2022-09-05T23:58:41.673Z,1.80
